createdAt,value
2023-02-28T00:00:39.284Z,1.00
2023-02-28T00:03:06.446Z,1.20
2023-02-28T00:05:33.442Z,1.30
2023-02-28T00:08:00.306Z,1.30
2023-02-28T00:10:29.583Z,1.30
2023-02-28T00:13:00.636Z,1.30
2023-02-28T00:15:27.366Z,1.40
2023-02-28T00:17:54.094Z,1.15
2023-02-28T00:20:21.208Z,1.50
2023-02-28T00:22:50.543Z,1.27
2023-02-28T00:25:20.178Z,1.40
2023-02-28T00:27:47.682Z,1.38
2023-02-28T00:30:17.413Z,1.30
2023-02-28T00:32:44.553Z,1.40
2023-02-28T00:35:12.295Z,1.20
2023-02-28T00:37:42.105Z,1.33
2023-02-28T00:40:10.072Z,1.35
2023-02-28T00:42:36.930Z,1.60
2023-02-28T00:45:05.565Z,1.58
2023-02-28T00:47:32.782Z,1.30
2023-02-28T00:49:59.715Z,1.48
2023-02-28T00:52:26.623Z,1.30
2023-02-28T00:54:55.372Z,1.38
2023-02-28T00:57:22.256Z,1.58
2023-02-28T00:59:49.094Z,1.35
2023-02-28T01:02:15.797Z,1.50
2023-02-28T01:04:42.616Z,1.40
2023-02-28T01:07:10.224Z,1.50
2023-02-28T01:09:36.985Z,1.55
2023-02-28T01:12:05.114Z,1.40
2023-02-28T01:14:33.495Z,1.50
2023-02-28T01:17:00.182Z,1.38
2023-02-28T01:19:27.553Z,1.40
2023-02-28T01:21:54.213Z,1.45
2023-02-28T01:24:20.955Z,1.52
2023-02-28T01:26:47.602Z,1.73
2023-02-28T01:29:14.295Z,1.50
2023-02-28T01:31:41.103Z,1.58
2023-02-28T01:34:08.792Z,1.52
2023-02-28T01:36:35.479Z,1.65
2023-02-28T01:39:02.153Z,1.50
2023-02-28T01:41:34.908Z,1.48
2023-02-28T01:44:06.097Z,1.75
2023-02-28T01:46:36.824Z,1.50
2023-02-28T01:49:13.333Z,1.67
2023-02-28T01:51:51.482Z,1.70
2023-02-28T01:54:31.735Z,1.85
2023-02-28T01:57:12.895Z,1.58
2023-02-28T01:59:50.835Z,1.42
2023-02-28T02:02:20.021Z,1.80
2023-02-28T02:05:02.607Z,1.83
2023-02-28T02:07:39.556Z,1.42
2023-02-28T02:10:15.826Z,1.90
2023-02-28T02:12:49.898Z,1.58
2023-02-28T02:15:31.539Z,1.73
2023-02-28T02:18:21.333Z,1.60
2023-02-28T02:21:19.432Z,1.80
2023-02-28T02:23:55.610Z,1.70
2023-02-28T02:26:34.736Z,1.98
2023-02-28T02:29:38.275Z,1.73
2023-02-28T02:32:29.690Z,1.60
2023-02-28T02:35:11.334Z,1.70
2023-02-28T02:37:46.984Z,1.83
2023-02-28T02:40:21.385Z,1.70
2023-02-28T02:43:02.426Z,2.00
2023-02-28T02:45:38.146Z,1.80
2023-02-28T02:48:10.030Z,2.08
2023-02-28T02:50:44.408Z,1.90
2023-02-28T02:53:12.852Z,1.90
2023-02-28T02:55:47.162Z,1.88
2023-02-28T02:58:19.758Z,2.00
2023-02-28T03:00:51.982Z,1.95
2023-02-28T03:03:21.639Z,1.63
2023-02-28T03:05:52.134Z,1.60
2023-02-28T03:08:18.791Z,1.80
2023-02-28T03:10:49.445Z,1.88
2023-02-28T03:13:52.802Z,1.83
2023-02-28T03:16:29.786Z,1.70
2023-02-28T03:19:24.750Z,1.80
2023-02-28T03:22:15.379Z,2.00
2023-02-28T03:25:05.600Z,1.60
2023-02-28T03:27:49.496Z,1.98
2023-02-28T03:30:43.407Z,1.90
2023-02-28T03:33:18.535Z,1.60
2023-02-28T03:35:53.177Z,2.20
2023-02-28T03:38:30.672Z,1.77
2023-02-28T03:41:22.820Z,1.75
2023-02-28T03:43:59.868Z,1.90
2023-02-28T03:46:29.928Z,1.77
2023-02-28T03:49:23.939Z,2.00
2023-02-28T03:51:52.122Z,1.77
2023-02-28T03:54:29.990Z,1.90
2023-02-28T03:57:11.930Z,1.90
2023-02-28T03:59:42.965Z,2.05
2023-02-28T04:02:09.924Z,1.73
2023-02-28T04:04:37.164Z,2.20
2023-02-28T04:07:12.133Z,2.08
2023-02-28T04:09:39.033Z,1.85
2023-02-28T04:12:06.137Z,1.92
2023-02-28T04:14:32.840Z,2.25
2023-02-28T04:16:59.582Z,1.63
2023-02-28T04:19:26.265Z,1.73
2023-02-28T04:21:54.498Z,1.90
2023-02-28T04:24:23.791Z,1.75
2023-02-28T04:26:52.974Z,2.00
2023-02-28T04:29:23.104Z,1.83
2023-02-28T04:31:50.036Z,2.20
2023-02-28T04:34:17.622Z,1.73
2023-02-28T04:36:44.265Z,1.77
2023-02-28T04:39:10.921Z,2.03
2023-02-28T04:41:37.677Z,1.90
2023-02-28T04:44:04.696Z,2.10
2023-02-28T04:46:31.770Z,1.95
2023-02-28T04:48:59.191Z,2.05
2023-02-28T04:51:25.959Z,1.70
2023-02-28T04:53:53.285Z,2.00
2023-02-28T04:56:20.157Z,2.10
2023-02-28T04:58:46.825Z,2.10
2023-02-28T05:01:34.376Z,2.15
2023-02-28T05:04:03.064Z,2.10
2023-02-28T05:06:31.832Z,1.98
2023-02-28T05:08:59.339Z,2.33
2023-02-28T05:11:35.632Z,2.20
2023-02-28T05:16:33.342Z,2.38
2023-02-28T05:19:00.464Z,2.15
2023-02-28T05:21:29.134Z,2.17
2023-02-28T05:23:57.459Z,2.38
2023-02-28T05:26:25.248Z,2.20
2023-02-28T05:28:51.894Z,2.15
2023-02-28T05:31:19.079Z,2.28
2023-02-28T05:33:45.931Z,2.30
2023-02-28T05:36:12.793Z,2.38
2023-02-28T05:38:39.540Z,2.28
2023-02-28T05:41:10.604Z,2.53
2023-02-28T05:43:38.287Z,2.58
2023-02-28T05:46:09.732Z,2.60
2023-02-28T05:48:37.651Z,2.85
2023-02-28T05:51:05.826Z,2.75
2023-02-28T05:53:33.078Z,3.00
2023-02-28T05:56:00.273Z,3.00
2023-02-28T05:58:31.435Z,2.85
2023-02-28T06:00:59.274Z,2.72
2023-02-28T06:03:26.255Z,2.63
2023-02-28T06:05:53.035Z,2.70
2023-02-28T06:08:19.916Z,3.00
2023-02-28T06:10:46.605Z,3.00
2023-02-28T06:13:13.777Z,3.10
2023-02-28T06:15:40.607Z,2.90
2023-02-28T06:18:07.286Z,2.85
2023-02-28T06:20:34.347Z,3.17
2023-02-28T06:23:01.120Z,2.83
2023-02-28T06:25:29.054Z,3.00
2023-02-28T06:27:56.430Z,3.08
2023-02-28T06:30:27.670Z,3.00
2023-02-28T06:32:55.486Z,3.40
2023-02-28T06:35:22.595Z,3.10
2023-02-28T06:37:49.349Z,3.00
2023-02-28T06:40:16.361Z,3.00
2023-02-28T06:42:43.431Z,3.08
2023-02-28T06:45:11.409Z,3.33
2023-02-28T06:47:40.042Z,3.30
2023-02-28T06:50:08.284Z,3.30
2023-02-28T06:52:37.112Z,3.05
2023-02-28T06:55:05.575Z,3.35
2023-02-28T06:57:33.876Z,3.20
2023-02-28T07:00:01.509Z,3.60
2023-02-28T07:02:28.974Z,3.22
2023-02-28T07:04:55.790Z,3.63
2023-02-28T07:07:22.719Z,3.50
2023-02-28T07:09:49.460Z,3.38
2023-02-28T07:12:16.710Z,3.72
2023-02-28T07:14:43.441Z,3.53
2023-02-28T07:17:13.078Z,3.28
2023-02-28T07:19:40.527Z,3.72
2023-02-28T07:22:07.750Z,3.33
2023-02-28T07:24:34.748Z,3.42
2023-02-28T07:27:02.453Z,3.40
2023-02-28T07:29:29.508Z,3.58
2023-02-28T07:31:56.878Z,3.88
2023-02-28T07:34:24.086Z,3.97
2023-02-28T07:36:54.460Z,3.83
2023-02-28T07:39:22.925Z,4.10
2023-02-28T07:41:49.611Z,3.78
2023-02-28T07:44:16.882Z,4.00
2023-02-28T07:46:43.586Z,4.68
2023-02-28T07:49:10.232Z,3.33
2023-02-28T07:51:36.881Z,3.03
2023-02-28T07:54:03.932Z,2.90
2023-02-28T07:56:30.816Z,2.50
2023-02-28T07:58:57.675Z,2.50
2023-02-28T08:01:24.520Z,2.30
2023-02-28T08:03:51.462Z,2.33
2023-02-28T08:06:21.597Z,2.60
2023-02-28T08:08:48.404Z,2.33
2023-02-28T08:11:15.857Z,2.85
2023-02-28T08:13:46.302Z,2.17
2023-02-28T08:16:22.814Z,2.90
2023-02-28T08:18:53.522Z,2.10
2023-02-28T08:21:20.703Z,1.30
2023-02-28T08:23:49.546Z,1.40
2023-02-28T08:26:17.998Z,1.63
2023-02-28T08:28:45.379Z,2.17
2023-02-28T08:31:14.466Z,2.08
2023-02-28T08:33:41.972Z,3.15
2023-02-28T08:36:09.857Z,3.08
2023-02-28T08:38:37.509Z,3.22
2023-02-28T08:41:08.184Z,2.80
2023-02-28T08:43:35.843Z,3.78
2023-02-28T08:46:03.375Z,3.92
2023-02-28T08:48:32.008Z,3.65
2023-02-28T08:51:07.623Z,3.75
2023-02-28T08:53:35.639Z,3.85
2023-02-28T08:56:10.859Z,3.28
2023-02-28T08:58:37.873Z,3.85
2023-02-28T09:01:16.926Z,3.47
2023-02-28T09:03:44.490Z,3.65
2023-02-28T09:06:12.448Z,3.63
2023-02-28T09:08:40.111Z,4.53
2023-02-28T09:11:06.817Z,3.72
2023-02-28T09:13:34.285Z,3.92
2023-02-28T09:16:03.478Z,4.00
2023-02-28T09:18:30.874Z,4.22
2023-02-28T09:20:58.857Z,3.90
2023-02-28T09:23:25.907Z,3.90
2023-02-28T09:25:55.043Z,3.97
2023-02-28T09:28:23.012Z,4.10
2023-02-28T09:30:55.252Z,3.85
2023-02-28T09:33:22.599Z,4.20
2023-02-28T09:35:50.656Z,4.00
2023-02-28T09:38:18.168Z,4.18
2023-02-28T09:41:02.214Z,4.00
2023-02-28T09:43:38.673Z,4.40
2023-02-28T09:46:33.584Z,3.67
2023-02-28T09:49:05.195Z,4.43
2023-02-28T09:51:46.504Z,4.20
2023-02-28T09:54:24.872Z,4.38
2023-02-28T09:56:59.642Z,4.35
2023-02-28T10:00:09.017Z,4.45
2023-02-28T10:03:17.259Z,4.22
2023-02-28T10:06:04.505Z,4.53
2023-02-28T10:08:43.602Z,4.72
2023-02-28T10:11:15.475Z,4.47
2023-02-28T10:14:06.730Z,4.35
2023-02-28T10:16:38.360Z,4.40
2023-02-28T10:19:18.951Z,4.57
2023-02-28T10:21:55.539Z,4.25
2023-02-28T10:24:35.575Z,4.43
2023-02-28T10:27:16.729Z,3.88
2023-02-28T10:29:50.089Z,4.88
2023-02-28T10:32:19.917Z,5.05
2023-02-28T10:34:58.192Z,18.55
2023-02-28T10:37:24.891Z,23.17
2023-02-28T10:39:51.784Z,46.50
2023-02-28T10:42:23.104Z,37.40
2023-02-28T10:44:49.834Z,20.77
2023-02-28T10:47:18.808Z,19.38
2023-02-28T10:49:53.223Z,20.02
2023-02-28T10:52:40.964Z,19.90
2023-02-28T10:55:26.114Z,18.95
2023-02-28T10:57:53.769Z,17.42
2023-02-28T11:00:23.526Z,16.30
2023-02-28T11:02:50.306Z,14.88
2023-02-28T11:05:29.008Z,12.57
2023-02-28T11:08:07.346Z,13.75
2023-02-28T11:10:37.053Z,11.68
2023-02-28T11:13:04.710Z,11.55
2023-02-28T11:15:34.400Z,11.25
2023-02-28T11:18:37.144Z,11.05
2023-02-28T11:21:04.396Z,10.77
2023-02-28T11:23:37.564Z,9.93
2023-02-28T11:26:12.249Z,8.63
2023-02-28T11:28:42.937Z,8.50
2023-02-28T11:31:12.454Z,9.38
2023-02-28T11:33:56.735Z,9.40
2023-02-28T11:36:25.585Z,7.97
2023-02-28T11:38:56.260Z,8.15
2023-02-28T11:41:32.106Z,8.10
2023-02-28T11:44:23.405Z,7.47
2023-02-28T11:46:52.686Z,7.43
2023-02-28T11:49:36.752Z,7.32
2023-02-28T11:52:15.162Z,7.20
2023-02-28T11:55:05.209Z,6.68
2023-02-28T11:57:52.515Z,6.68
2023-02-28T12:00:21.986Z,6.72
2023-02-28T12:03:22.188Z,6.70
2023-02-28T12:06:16.967Z,6.63
2023-02-28T12:08:53.024Z,5.97
2023-02-28T12:11:54.748Z,6.03
2023-02-28T12:14:39.266Z,6.32
2023-02-28T12:17:16.445Z,5.80
2023-02-28T12:19:56.925Z,5.78
2023-02-28T12:22:31.489Z,5.65
2023-02-28T12:25:07.267Z,5.43
2023-02-28T12:27:47.054Z,5.82
2023-02-28T12:30:20.355Z,5.68
2023-02-28T12:32:51.922Z,5.50
2023-02-28T12:35:32.897Z,5.63
2023-02-28T12:38:30.519Z,5.25
2023-02-28T12:41:04.377Z,5.07
2023-02-28T12:43:39.319Z,5.47
2023-02-28T12:46:22.666Z,4.88
2023-02-28T12:48:57.581Z,5.30
2023-02-28T12:51:26.013Z,5.20
2023-02-28T12:54:20.499Z,4.78
2023-02-28T12:56:58.385Z,4.75
2023-02-28T12:59:28.598Z,4.90
2023-02-28T13:02:30.763Z,5.20
2023-02-28T13:05:34.488Z,4.75
2023-02-28T13:08:43.755Z,4.53
2023-02-28T13:11:53.565Z,4.50
2023-02-28T13:14:28.537Z,4.95
2023-02-28T13:17:10.403Z,4.70
2023-02-28T13:19:38.361Z,4.72
2023-02-28T13:22:06.708Z,5.00
2023-02-28T13:24:46.158Z,4.75
2023-02-28T13:27:32.279Z,4.65
2023-02-28T13:29:59.352Z,4.80
2023-02-28T13:32:26.052Z,4.38
2023-02-28T13:34:52.674Z,4.85
2023-02-28T13:37:22.355Z,4.70
2023-02-28T13:39:52.005Z,4.30
2023-02-28T13:42:38.015Z,4.28
2023-02-28T13:45:07.739Z,4.47
2023-02-28T13:47:47.665Z,4.60
2023-02-28T13:50:23.169Z,4.35
2023-02-28T13:52:56.871Z,4.40
2023-02-28T13:55:47.143Z,5.07
2023-02-28T13:58:32.085Z,4.22
2023-02-28T14:01:14.273Z,4.40
2023-02-28T14:04:24.597Z,4.55
2023-02-28T14:06:54.394Z,4.22
2023-02-28T14:09:37.470Z,4.82
2023-02-28T14:12:42.594Z,4.32
2023-02-28T14:15:34.196Z,4.20
2023-02-28T14:18:16.536Z,4.63
2023-02-28T14:20:46.451Z,4.65
2023-02-28T14:23:31.979Z,4.30
2023-02-28T14:26:20.352Z,4.30
2023-02-28T14:28:46.983Z,4.28
2023-02-28T14:31:24.912Z,4.25
2023-02-28T14:34:20.569Z,4.40
2023-02-28T14:36:47.822Z,4.25
2023-02-28T14:39:24.875Z,4.32
2023-02-28T14:41:52.840Z,4.78
2023-02-28T14:44:22.507Z,4.72
2023-02-28T14:46:53.469Z,4.63
2023-02-28T14:49:32.291Z,4.30
2023-02-28T14:52:16.899Z,4.18
2023-02-28T14:54:45.502Z,4.20
2023-02-28T14:57:24.473Z,4.45
2023-02-28T15:00:16.236Z,4.00
2023-02-28T15:02:43.920Z,4.32
2023-02-28T15:05:13.610Z,4.40
2023-02-28T15:07:40.792Z,4.00
2023-02-28T15:10:21.257Z,4.13
2023-02-28T15:13:15.939Z,4.07
2023-02-28T15:16:04.673Z,4.43
2023-02-28T15:18:44.466Z,4.00
2023-02-28T15:21:23.371Z,3.90
2023-02-28T15:24:00.359Z,3.80
2023-02-28T15:26:32.652Z,4.13
2023-02-28T15:29:02.337Z,3.97
2023-02-28T15:31:50.508Z,3.90
2023-02-28T15:34:44.774Z,4.03
2023-02-28T15:37:41.977Z,4.20
2023-02-28T15:40:14.521Z,4.03
2023-02-28T15:42:41.504Z,3.70
2023-02-28T15:45:29.476Z,3.53
2023-02-28T15:47:59.965Z,3.60
2023-02-28T15:50:31.046Z,4.10
2023-02-28T15:52:58.607Z,3.80
2023-02-28T15:55:28.409Z,4.40
2023-02-28T15:57:59.633Z,3.67
2023-02-28T16:00:33.784Z,4.45
2023-02-28T16:03:00.851Z,3.45
2023-02-28T16:05:32.658Z,3.65
2023-02-28T16:08:14.491Z,3.60
2023-02-28T16:10:41.280Z,3.72
2023-02-28T16:13:13.308Z,4.05
2023-02-28T16:15:44.113Z,3.75
2023-02-28T16:18:13.117Z,3.60
2023-02-28T16:20:40.297Z,3.63
2023-02-28T16:23:07.005Z,3.80
2023-02-28T16:25:42.925Z,3.88
2023-02-28T16:28:18.684Z,3.72
2023-02-28T16:30:45.507Z,3.67
2023-02-28T16:33:12.162Z,3.60
2023-02-28T16:35:38.870Z,3.70
2023-02-28T16:38:05.527Z,3.20
2023-02-28T16:40:36.588Z,3.50
2023-02-28T16:43:09.946Z,3.50
2023-02-28T16:45:36.646Z,3.30
2023-02-28T16:48:03.412Z,3.58
2023-02-28T16:50:33.437Z,3.95
2023-02-28T16:53:00.193Z,3.40
2023-02-28T16:55:28.404Z,3.47
2023-02-28T16:57:57.882Z,3.50
2023-02-28T17:00:25.669Z,3.78
2023-02-28T17:02:52.854Z,3.58
2023-02-28T17:05:19.947Z,3.75
2023-02-28T17:07:48.100Z,3.80
2023-02-28T17:10:16.812Z,3.53
2023-02-28T17:12:43.731Z,4.05
2023-02-28T17:15:12.845Z,4.00
2023-02-28T17:17:40.238Z,4.07
2023-02-28T17:20:08.161Z,4.07
2023-02-28T17:22:34.809Z,4.55
2023-02-28T17:25:01.525Z,4.22
2023-02-28T17:27:28.323Z,4.38
2023-02-28T17:29:54.969Z,4.60
2023-02-28T17:32:21.719Z,4.30
2023-02-28T17:34:48.430Z,4.70
2023-02-28T17:37:15.200Z,4.95
2023-02-28T17:39:41.906Z,5.05
2023-02-28T17:42:09.015Z,5.25
2023-02-28T17:44:35.781Z,4.63
2023-02-28T17:47:02.531Z,5.40
2023-02-28T17:49:29.228Z,5.47
2023-02-28T17:51:56.055Z,5.40
2023-02-28T17:54:22.705Z,5.22
2023-02-28T17:56:49.375Z,5.53
2023-02-28T17:59:16.374Z,5.38
2023-02-28T18:01:43.107Z,5.45
2023-02-28T18:04:09.802Z,5.20
2023-02-28T18:06:47.075Z,5.53
2023-02-28T18:09:15.538Z,5.30
2023-02-28T18:11:45.909Z,5.57
2023-02-28T18:14:12.912Z,5.45
2023-02-28T18:16:39.756Z,5.70
2023-02-28T18:19:07.338Z,5.28
2023-02-28T18:21:34.201Z,5.22
2023-02-28T18:24:00.979Z,5.30
2023-02-28T18:26:28.143Z,6.00
2023-02-28T18:28:55.049Z,5.50
2023-02-28T18:31:21.800Z,5.55
2023-02-28T18:33:50.192Z,5.38
2023-02-28T18:36:17.814Z,5.30
2023-02-28T18:38:45.828Z,5.68
2023-02-28T18:41:12.979Z,5.03
2023-02-28T18:43:39.820Z,5.22
2023-02-28T18:46:11.979Z,5.03
2023-02-28T18:48:38.914Z,5.75
2023-02-28T18:51:09.875Z,5.55
2023-02-28T18:53:37.448Z,5.60
2023-02-28T18:56:05.923Z,5.10
2023-02-28T18:58:33.484Z,5.68
2023-02-28T19:01:01.206Z,5.32
2023-02-28T19:03:28.090Z,5.82
2023-02-28T19:05:59.707Z,5.63
2023-02-28T19:08:26.869Z,5.85
2023-02-28T19:10:53.531Z,5.60
2023-02-28T19:13:20.929Z,6.70
2023-02-28T19:15:48.127Z,6.05
2023-02-28T19:18:15.058Z,5.93
2023-02-28T19:20:41.733Z,5.90
2023-02-28T19:23:11.607Z,6.38
2023-02-28T19:25:41.526Z,6.43
2023-02-28T19:28:08.184Z,6.40
2023-02-28T19:30:34.890Z,6.35
2023-02-28T19:33:01.608Z,6.40
2023-02-28T19:35:28.353Z,6.35
2023-02-28T19:37:55.113Z,6.28
2023-02-28T19:40:21.851Z,6.25
2023-02-28T19:42:48.552Z,5.90
2023-02-28T19:45:15.227Z,6.82
2023-02-28T19:47:42.156Z,6.85
2023-02-28T19:50:09.587Z,6.38
2023-02-28T19:52:36.260Z,6.93
2023-02-28T19:55:03.063Z,6.80
2023-02-28T19:57:29.798Z,7.00
2023-02-28T19:59:56.502Z,6.68
2023-02-28T20:02:23.346Z,6.80
2023-02-28T20:04:51.084Z,6.40
2023-02-28T20:07:20.300Z,6.45
2023-02-28T20:09:48.143Z,7.07
2023-02-28T20:12:24.035Z,6.90
2023-02-28T20:14:51.630Z,6.78
2023-02-28T20:17:18.627Z,6.63
2023-02-28T20:19:45.991Z,6.10
2023-02-28T20:22:12.753Z,6.30
2023-02-28T20:24:39.415Z,6.13
2023-02-28T20:27:06.144Z,6.25
2023-02-28T20:29:34.366Z,6.20
2023-02-28T20:32:01.384Z,6.72
2023-02-28T20:34:28.181Z,6.50
2023-02-28T20:36:56.494Z,6.22
2023-02-28T20:39:23.764Z,6.40
2023-02-28T20:41:50.558Z,5.65
2023-02-28T20:44:17.607Z,5.97
2023-02-28T20:46:44.440Z,6.40
2023-02-28T20:49:11.393Z,6.20
2023-02-28T20:51:40.060Z,6.40
2023-02-28T20:54:08.076Z,7.03
2023-02-28T20:56:34.929Z,6.18
2023-02-28T20:59:01.624Z,6.57
2023-02-28T21:01:29.566Z,6.10
2023-02-28T21:03:59.111Z,6.15
2023-02-28T21:06:29.200Z,6.03
2023-02-28T21:08:57.336Z,6.43
2023-02-28T21:11:27.549Z,6.10
2023-02-28T21:13:55.072Z,7.20
2023-02-28T21:16:24.392Z,6.35
2023-02-28T21:18:52.882Z,6.43
2023-02-28T21:21:21.976Z,6.38
2023-02-28T21:23:49.705Z,6.22
2023-02-28T21:26:19.574Z,6.28
2023-02-28T21:29:04.591Z,6.28
2023-02-28T21:31:33.731Z,6.03
2023-02-28T21:34:02.482Z,5.90
2023-02-28T21:36:32.973Z,6.10
2023-02-28T21:39:08.142Z,6.40
2023-02-28T21:41:35.715Z,6.22
2023-02-28T21:44:02.542Z,6.03
2023-02-28T21:46:30.497Z,6.03
2023-02-28T21:48:58.169Z,6.22
2023-02-28T21:51:32.505Z,5.70
2023-02-28T21:54:00.478Z,5.57
2023-02-28T21:56:30.917Z,5.45
2023-02-28T21:59:01.178Z,6.03
2023-02-28T22:01:32.468Z,5.95
2023-02-28T22:04:00.140Z,5.85
2023-02-28T22:06:30.390Z,6.30
2023-02-28T22:09:01.961Z,5.93
2023-02-28T22:11:29.125Z,6.05
2023-02-28T22:13:57.831Z,6.07
2023-02-28T22:16:27.155Z,5.20
2023-02-28T22:18:55.240Z,5.38
2023-02-28T22:21:23.079Z,5.30
2023-02-28T22:23:50.300Z,5.68
2023-02-28T22:26:19.861Z,5.50
2023-02-28T22:28:46.977Z,5.43
2023-02-28T22:31:23.353Z,5.68
2023-02-28T22:33:52.915Z,5.22
2023-02-28T22:36:20.230Z,5.53
2023-02-28T22:38:48.231Z,5.72
2023-02-28T22:41:15.904Z,5.50
2023-02-28T22:43:42.784Z,5.43
2023-02-28T22:46:12.975Z,5.97
2023-02-28T22:48:40.022Z,5.70
2023-02-28T22:51:08.088Z,5.30
2023-02-28T22:53:35.839Z,5.85
2023-02-28T22:56:02.856Z,5.13
2023-02-28T22:58:30.052Z,5.18
2023-02-28T23:00:57.762Z,5.30
2023-02-28T23:03:25.875Z,5.32
2023-02-28T23:05:53.482Z,6.00
2023-02-28T23:08:22.428Z,5.53
2023-02-28T23:10:50.774Z,5.45
2023-02-28T23:13:19.049Z,5.35
2023-02-28T23:15:46.809Z,5.55
2023-02-28T23:18:15.139Z,5.88
2023-02-28T23:20:41.823Z,5.50
2023-02-28T23:23:10.073Z,5.63
2023-02-28T23:25:40.336Z,5.80
2023-02-28T23:28:10.040Z,5.80
2023-02-28T23:30:38.601Z,5.13
2023-02-28T23:33:08.113Z,5.63
2023-02-28T23:35:34.882Z,5.90
2023-02-28T23:38:01.581Z,5.45
2023-02-28T23:40:28.260Z,5.85
2023-02-28T23:42:54.908Z,5.22
2023-02-28T23:45:21.607Z,5.30
2023-02-28T23:47:48.307Z,5.25
2023-02-28T23:50:15.025Z,5.25
2023-02-28T23:52:41.916Z,5.60
2023-02-28T23:55:09.091Z,5.47
2023-02-28T23:57:35.828Z,5.40
